createdAt,value
2017-04-30T00:01:00.563Z,0.00
2017-04-30T00:02:01.857Z,0.00
2017-04-30T00:03:03.144Z,0.00
2017-04-30T00:04:04.433Z,0.00
2017-04-30T00:05:05.723Z,0.00
2017-04-30T00:06:07.006Z,0.00
2017-04-30T00:07:08.292Z,0.00
2017-04-30T00:08:09.576Z,0.00
2017-04-30T00:09:10.862Z,0.00
2017-04-30T00:10:12.150Z,0.00
2017-04-30T00:11:13.437Z,0.00
2017-04-30T00:12:14.725Z,0.00
2017-04-30T00:13:16.011Z,0.00
2017-04-30T00:14:17.299Z,0.00
2017-04-30T00:15:18.585Z,0.00
2017-04-30T00:16:19.876Z,0.00
2017-04-30T00:17:21.160Z,0.00
2017-04-30T00:18:22.447Z,0.00
2017-04-30T00:19:23.732Z,0.00
2017-04-30T00:20:25.020Z,0.00
2017-04-30T00:21:26.304Z,0.00
2017-04-30T00:22:27.589Z,0.00
2017-04-30T00:23:28.881Z,0.00
2017-04-30T00:24:30.166Z,0.00
2017-04-30T00:25:31.455Z,0.00
2017-04-30T00:26:32.742Z,0.00
2017-04-30T00:27:34.026Z,0.00
2017-04-30T00:28:35.313Z,0.00
2017-04-30T00:29:36.598Z,0.00
2017-04-30T00:30:37.885Z,0.00
2017-04-30T00:31:39.172Z,0.00
2017-04-30T00:32:40.453Z,0.00
2017-04-30T00:33:41.746Z,0.00
2017-04-30T00:34:43.031Z,0.00
2017-04-30T00:35:44.322Z,0.00
2017-04-30T00:36:45.604Z,0.00
2017-04-30T00:37:46.891Z,0.00
2017-04-30T00:38:48.179Z,0.00
2017-04-30T00:39:49.465Z,0.00
2017-04-30T00:40:50.752Z,0.00
2017-04-30T00:41:52.038Z,0.00
2017-04-30T00:42:53.325Z,0.00
2017-04-30T00:43:54.611Z,0.00
2017-04-30T00:44:55.897Z,0.00
2017-04-30T00:45:57.182Z,0.00
2017-04-30T00:46:58.469Z,0.00
2017-04-30T00:47:59.758Z,0.00
2017-04-30T00:49:01.046Z,0.00
2017-04-30T00:50:02.337Z,0.00
2017-04-30T00:51:03.625Z,0.00
2017-04-30T00:52:04.911Z,0.00
2017-04-30T00:53:06.197Z,0.00
2017-04-30T00:54:07.483Z,0.00
2017-04-30T00:55:08.771Z,0.00
2017-04-30T00:56:10.063Z,0.00
2017-04-30T00:57:11.349Z,0.00
2017-04-30T00:58:12.634Z,0.00
2017-04-30T00:59:13.921Z,0.00
2017-04-30T01:00:15.207Z,0.00
2017-04-30T01:01:16.495Z,0.00
2017-04-30T01:02:17.782Z,0.00
2017-04-30T01:03:19.069Z,0.00
2017-04-30T01:04:20.352Z,0.00
2017-04-30T01:05:21.638Z,0.00
2017-04-30T01:06:22.925Z,0.00
2017-04-30T01:07:24.211Z,0.00
2017-04-30T01:08:25.500Z,0.00
2017-04-30T01:09:26.787Z,0.00
2017-04-30T01:10:28.072Z,0.00
2017-04-30T01:11:29.359Z,0.00
2017-04-30T01:12:30.646Z,0.00
2017-04-30T01:13:31.930Z,0.00
2017-04-30T01:14:33.215Z,0.00
2017-04-30T01:15:34.501Z,0.00
2017-04-30T01:16:35.788Z,0.00
2017-04-30T01:17:37.076Z,0.00
2017-04-30T01:18:38.360Z,0.00
2017-04-30T01:19:39.648Z,0.00
2017-04-30T01:20:40.935Z,0.00
2017-04-30T01:21:42.221Z,0.00
2017-04-30T01:22:43.506Z,0.00
2017-04-30T01:23:44.791Z,0.00
2017-04-30T01:24:46.078Z,0.00
2017-04-30T01:25:47.365Z,0.00
2017-04-30T01:26:48.660Z,0.00
2017-04-30T01:27:49.947Z,0.00
2017-04-30T01:28:51.233Z,0.00
2017-04-30T01:29:52.521Z,0.00
2017-04-30T01:30:53.804Z,0.00
2017-04-30T01:31:55.088Z,0.00
2017-04-30T01:32:56.380Z,0.00
2017-04-30T01:33:57.658Z,0.00
2017-04-30T01:34:58.944Z,0.00
2017-04-30T01:36:00.230Z,0.00
2017-04-30T01:37:01.515Z,0.00
2017-04-30T01:38:02.801Z,0.00
2017-04-30T01:39:04.084Z,0.00
2017-04-30T01:40:05.369Z,0.00
2017-04-30T01:41:06.655Z,0.00
2017-04-30T01:42:07.942Z,0.00
2017-04-30T01:43:09.228Z,0.00
2017-04-30T01:44:10.515Z,0.00
2017-04-30T01:45:11.802Z,0.00
2017-04-30T01:46:13.088Z,0.00
2017-04-30T01:47:14.371Z,0.00
2017-04-30T01:48:15.660Z,0.00
2017-04-30T01:49:16.944Z,0.00
2017-04-30T01:50:18.229Z,0.00
2017-04-30T01:51:19.514Z,0.00
2017-04-30T01:52:20.801Z,0.00
2017-04-30T01:53:22.088Z,0.00
2017-04-30T01:54:23.372Z,0.00
2017-04-30T01:55:24.661Z,0.00
2017-04-30T01:56:25.945Z,0.00
2017-04-30T01:57:27.236Z,0.00
2017-04-30T01:58:28.525Z,0.00
2017-04-30T01:59:29.805Z,0.00
2017-04-30T02:00:31.096Z,0.00
2017-04-30T02:01:32.376Z,0.00
2017-04-30T02:02:33.662Z,0.00
2017-04-30T02:03:34.951Z,0.00
2017-04-30T02:04:36.239Z,0.00
2017-04-30T02:05:37.526Z,0.00
2017-04-30T02:06:38.811Z,0.00
2017-04-30T02:07:40.097Z,0.00
2017-04-30T02:08:41.385Z,0.00
2017-04-30T02:09:42.673Z,0.00
2017-04-30T02:10:43.963Z,0.00
2017-04-30T02:11:45.244Z,0.00
2017-04-30T02:12:46.534Z,0.00
2017-04-30T02:13:47.822Z,0.00
2017-04-30T02:14:49.108Z,0.00
2017-04-30T02:15:50.396Z,0.00
2017-04-30T02:16:51.684Z,0.00
2017-04-30T02:17:52.971Z,0.00
2017-04-30T02:18:54.254Z,0.00
2017-04-30T02:19:55.540Z,0.00
2017-04-30T02:20:56.823Z,0.00
2017-04-30T02:21:58.110Z,0.00
2017-04-30T02:22:59.394Z,0.00
2017-04-30T02:24:00.683Z,0.00
2017-04-30T02:25:01.972Z,0.00
2017-04-30T02:26:03.255Z,0.00
2017-04-30T02:27:04.542Z,0.00
2017-04-30T02:28:05.830Z,0.00
2017-04-30T02:29:07.115Z,0.00
2017-04-30T02:30:08.400Z,0.00
2017-04-30T02:31:09.687Z,0.00
2017-04-30T02:32:10.973Z,0.00
2017-04-30T02:33:12.258Z,0.00
2017-04-30T02:34:13.548Z,0.00
2017-04-30T02:35:14.837Z,0.00
2017-04-30T02:36:16.123Z,0.00
2017-04-30T02:37:17.409Z,0.00
2017-04-30T02:38:18.694Z,0.00
2017-04-30T02:39:19.979Z,0.00
2017-04-30T02:40:21.265Z,0.00
2017-04-30T02:41:22.548Z,0.00
2017-04-30T02:42:23.838Z,0.00
2017-04-30T02:43:25.130Z,0.00
2017-04-30T02:44:26.417Z,0.00
2017-04-30T02:45:27.702Z,0.00
2017-04-30T02:46:28.985Z,0.00
2017-04-30T02:47:30.271Z,0.00
2017-04-30T02:48:31.557Z,0.00
2017-04-30T02:49:32.845Z,0.00
2017-04-30T02:50:34.130Z,0.00
2017-04-30T02:51:35.418Z,0.00
2017-04-30T02:52:36.745Z,0.00
2017-04-30T02:53:38.030Z,0.00
2017-04-30T02:54:39.316Z,0.00
2017-04-30T02:55:40.600Z,0.00
2017-04-30T02:56:41.891Z,0.00
2017-04-30T02:57:43.178Z,0.00
2017-04-30T02:58:44.468Z,0.00
2017-04-30T02:59:45.751Z,0.00
2017-04-30T03:00:47.037Z,0.00
2017-04-30T03:01:48.321Z,0.00
2017-04-30T03:02:49.644Z,0.00
2017-04-30T03:03:50.894Z,0.00
2017-04-30T03:04:52.178Z,0.00
2017-04-30T03:05:53.463Z,0.00
2017-04-30T03:06:54.748Z,0.00
2017-04-30T03:07:56.033Z,0.00
2017-04-30T03:08:57.324Z,0.00
2017-04-30T03:09:58.605Z,0.00
2017-04-30T03:10:59.893Z,0.00
2017-04-30T03:12:01.179Z,0.00
2017-04-30T03:13:02.465Z,0.00
2017-04-30T03:14:03.749Z,0.00
2017-04-30T03:15:05.038Z,0.00
2017-04-30T03:16:06.324Z,0.00
2017-04-30T03:17:07.625Z,0.00
2017-04-30T03:18:08.892Z,0.00
2017-04-30T03:19:10.179Z,0.00
2017-04-30T03:20:11.470Z,0.00
2017-04-30T03:21:12.753Z,0.00
2017-04-30T03:22:14.039Z,0.00
2017-04-30T03:23:15.323Z,0.00
2017-04-30T03:24:16.608Z,0.00
2017-04-30T03:25:17.893Z,0.00
2017-04-30T03:26:19.180Z,0.00
2017-04-30T03:27:20.465Z,0.00
2017-04-30T03:28:21.753Z,0.00
2017-04-30T03:29:23.039Z,0.00
2017-04-30T03:30:24.325Z,0.00
2017-04-30T03:31:25.613Z,0.00
2017-04-30T03:32:26.900Z,0.00
2017-04-30T03:33:28.184Z,0.00
2017-04-30T03:34:29.469Z,0.00
2017-04-30T03:35:30.754Z,0.00
2017-04-30T03:36:32.042Z,0.00
2017-04-30T03:37:33.325Z,0.00
2017-04-30T03:38:34.613Z,0.00
2017-04-30T03:39:35.898Z,0.00
2017-04-30T03:40:37.187Z,4.00
2017-04-30T03:41:38.470Z,0.00
2017-04-30T03:42:39.758Z,0.00
2017-04-30T03:43:41.044Z,4.00
2017-04-30T03:44:42.329Z,0.00
2017-04-30T03:45:43.620Z,4.00
2017-04-30T03:46:44.912Z,4.00
2017-04-30T03:47:46.196Z,4.00
2017-04-30T03:48:47.484Z,4.00
2017-04-30T03:49:48.771Z,4.00
2017-04-30T03:50:50.059Z,4.00
2017-04-30T03:51:51.342Z,8.00
2017-04-30T03:52:52.628Z,8.00
2017-04-30T03:53:53.915Z,8.00
2017-04-30T03:54:55.201Z,12.00
2017-04-30T03:55:56.488Z,12.00
2017-04-30T03:56:57.776Z,12.00
2017-04-30T03:57:59.061Z,16.00
2017-04-30T03:59:00.348Z,20.00
2017-04-30T04:00:01.635Z,20.00
2017-04-30T04:01:02.923Z,24.00
2017-04-30T04:02:04.210Z,24.00
2017-04-30T04:03:05.498Z,28.00
2017-04-30T04:04:06.781Z,32.00
2017-04-30T04:05:08.071Z,36.00
2017-04-30T04:06:09.357Z,40.00
2017-04-30T04:07:10.645Z,44.00
2017-04-30T04:08:11.931Z,48.00
2017-04-30T04:09:13.217Z,52.00
2017-04-30T04:10:14.505Z,60.00
2017-04-30T04:11:15.793Z,60.00
2017-04-30T04:12:17.082Z,68.00
2017-04-30T04:13:18.370Z,76.00
2017-04-30T04:14:19.658Z,80.00
2017-04-30T04:15:20.955Z,84.00
2017-04-30T04:16:22.243Z,92.00
2017-04-30T04:17:23.529Z,96.00
2017-04-30T04:18:24.818Z,104.00
2017-04-30T04:19:26.104Z,112.00
2017-04-30T04:20:27.392Z,120.00
2017-04-30T04:21:28.681Z,132.00
2017-04-30T04:22:29.972Z,136.00
2017-04-30T04:23:31.264Z,148.00
2017-04-30T04:24:32.554Z,152.00
2017-04-30T04:25:33.845Z,164.00
2017-04-30T04:26:35.137Z,168.00
2017-04-30T04:27:36.422Z,180.00
2017-04-30T04:28:37.737Z,188.00
2017-04-30T04:29:39.012Z,196.00
2017-04-30T04:30:40.298Z,204.00
2017-04-30T04:31:41.589Z,216.00
2017-04-30T04:32:42.879Z,224.00
2017-04-30T04:33:44.171Z,236.00
2017-04-30T04:34:45.481Z,244.00
2017-04-30T04:35:46.761Z,256.00
2017-04-30T04:36:48.048Z,264.00
2017-04-30T04:37:49.336Z,272.00
2017-04-30T04:38:50.623Z,284.00
2017-04-30T04:39:51.913Z,292.00
2017-04-30T04:40:53.201Z,300.00
2017-04-30T04:41:54.490Z,308.00
2017-04-30T04:42:55.778Z,320.00
2017-04-30T04:43:57.074Z,340.00
2017-04-30T04:44:58.358Z,372.00
2017-04-30T04:45:59.646Z,400.00
2017-04-30T04:47:00.934Z,424.00
2017-04-30T04:48:02.222Z,440.00
2017-04-30T04:49:03.511Z,460.00
2017-04-30T04:50:04.799Z,464.00
2017-04-30T04:51:06.084Z,472.00
2017-04-30T04:52:07.375Z,476.00
2017-04-30T04:53:08.663Z,484.00
2017-04-30T04:54:09.953Z,492.00
2017-04-30T04:55:11.242Z,512.00
2017-04-30T04:56:12.532Z,528.00
2017-04-30T04:57:13.846Z,544.00
2017-04-30T04:58:15.121Z,556.00
2017-04-30T04:59:16.412Z,580.00
2017-04-30T05:00:17.702Z,592.00
2017-04-30T05:01:18.992Z,592.00
2017-04-30T05:02:20.280Z,588.00
2017-04-30T05:03:21.571Z,604.00
2017-04-30T05:04:22.860Z,620.00
2017-04-30T05:05:24.150Z,628.00
2017-04-30T05:06:25.439Z,632.00
2017-04-30T05:07:26.727Z,644.00
2017-04-30T05:08:28.015Z,652.00
2017-04-30T05:09:29.306Z,660.00
2017-04-30T05:10:30.593Z,664.00
2017-04-30T05:11:31.883Z,668.00
2017-04-30T05:12:33.170Z,672.00
2017-04-30T05:13:34.458Z,680.00
2017-04-30T05:14:35.747Z,684.00
2017-04-30T05:15:37.038Z,688.00
2017-04-30T05:16:38.340Z,688.00
2017-04-30T05:17:39.629Z,696.00
2017-04-30T05:18:40.921Z,696.00
2017-04-30T05:19:42.209Z,700.00
2017-04-30T05:20:43.503Z,704.00
2017-04-30T05:21:44.792Z,708.00
2017-04-30T05:22:46.082Z,716.00
2017-04-30T05:23:47.373Z,720.00
2017-04-30T05:24:48.662Z,728.00
2017-04-30T05:25:49.951Z,732.00
2017-04-30T05:26:51.240Z,740.00
2017-04-30T05:27:52.527Z,748.00
2017-04-30T05:28:53.816Z,756.00
2017-04-30T05:29:55.105Z,764.00
2017-04-30T05:30:56.396Z,768.00
2017-04-30T05:31:57.684Z,776.00
2017-04-30T05:32:58.974Z,780.00
2017-04-30T05:34:00.262Z,788.00
2017-04-30T05:35:01.551Z,792.00
2017-04-30T05:36:02.839Z,804.00
2017-04-30T05:37:04.128Z,812.00
2017-04-30T05:38:05.414Z,816.00
2017-04-30T05:39:06.705Z,824.00
2017-04-30T05:40:08.029Z,832.00
2017-04-30T05:41:09.321Z,840.00
2017-04-30T05:42:10.651Z,848.00
2017-04-30T05:43:11.936Z,860.00
2017-04-30T05:44:13.226Z,864.00
2017-04-30T05:45:14.516Z,868.00
2017-04-30T05:46:15.805Z,880.00
2017-04-30T05:47:17.094Z,884.00
2017-04-30T05:48:18.385Z,892.00
2017-04-30T05:49:19.675Z,896.00
2017-04-30T05:50:20.980Z,908.00
2017-04-30T05:51:22.266Z,912.00
2017-04-30T05:52:23.542Z,920.00
2017-04-30T05:53:24.838Z,924.00
2017-04-30T05:54:26.122Z,928.00
2017-04-30T05:55:27.411Z,940.00
2017-04-30T05:56:28.698Z,948.00
2017-04-30T05:57:29.987Z,948.00
2017-04-30T05:58:31.278Z,952.00
2017-04-30T05:59:32.565Z,956.00
2017-04-30T06:00:33.858Z,964.00
2017-04-30T06:01:35.143Z,964.00
2017-04-30T06:02:36.433Z,972.00
2017-04-30T06:03:37.720Z,976.00
2017-04-30T06:04:39.011Z,980.00
2017-04-30T06:05:40.297Z,988.00
2017-04-30T06:06:41.587Z,988.00
2017-04-30T06:07:42.875Z,992.00
2017-04-30T06:08:44.163Z,996.00
2017-04-30T06:09:45.480Z,1000.00
2017-04-30T06:10:46.760Z,1008.00
2017-04-30T06:11:48.054Z,1016.00
2017-04-30T06:12:49.344Z,1016.00
2017-04-30T06:13:50.635Z,1024.00
2017-04-30T06:14:51.930Z,1028.00
2017-04-30T06:15:53.220Z,1024.00
2017-04-30T06:16:54.511Z,1032.00
2017-04-30T06:17:55.801Z,1036.00
2017-04-30T06:18:57.095Z,1036.00
2017-04-30T06:19:58.388Z,1044.00
2017-04-30T06:20:59.680Z,1048.00
2017-04-30T06:22:00.974Z,1052.00
2017-04-30T06:23:02.266Z,1060.00
2017-04-30T06:24:03.558Z,1064.00
2017-04-30T06:25:04.853Z,1068.00
2017-04-30T06:26:06.146Z,1072.00
2017-04-30T06:27:07.438Z,1076.00
2017-04-30T06:28:08.731Z,1080.00
2017-04-30T06:29:10.023Z,1088.00
2017-04-30T06:30:11.314Z,1096.00
2017-04-30T06:31:12.608Z,1096.00
2017-04-30T06:32:13.902Z,1104.00
2017-04-30T06:33:15.188Z,1112.00
2017-04-30T06:34:16.480Z,1116.00
2017-04-30T06:35:17.771Z,1124.00
2017-04-30T06:36:19.075Z,1128.00
2017-04-30T06:37:20.365Z,1132.00
2017-04-30T06:38:21.658Z,1140.00
2017-04-30T06:39:23.733Z,1140.00
2017-04-30T06:40:25.844Z,1148.00
2017-04-30T06:41:27.193Z,1168.00
2017-04-30T06:42:28.580Z,1160.00
2017-04-30T06:43:29.934Z,1168.00
2017-04-30T06:44:32.449Z,1172.00
2017-04-30T06:45:33.827Z,1180.00
2017-04-30T06:46:35.164Z,1184.00
2017-04-30T06:47:36.681Z,1192.00
2017-04-30T06:48:38.025Z,1196.00
2017-04-30T06:49:39.345Z,1204.00
2017-04-30T06:50:40.748Z,1184.00
2017-04-30T06:51:42.426Z,1200.00
2017-04-30T06:52:43.723Z,1232.00
2017-04-30T06:53:45.109Z,1232.00
2017-04-30T06:54:46.401Z,1236.00
2017-04-30T06:55:47.711Z,1248.00
2017-04-30T06:56:49.025Z,1248.00
2017-04-30T06:57:50.302Z,1260.00
2017-04-30T06:58:51.599Z,1272.00
2017-04-30T06:59:52.889Z,1284.00
2017-04-30T07:00:54.176Z,1288.00
2017-04-30T07:01:57.458Z,1296.00
2017-04-30T07:02:58.764Z,1304.00
2017-04-30T07:04:00.516Z,1300.00
2017-04-30T07:05:02.423Z,1276.00
2017-04-30T07:06:03.641Z,1280.00
2017-04-30T07:07:05.036Z,1284.00
2017-04-30T07:08:07.223Z,1268.00
2017-04-30T07:09:08.585Z,1300.00
2017-04-30T07:10:10.500Z,1292.00
2017-04-30T07:11:11.795Z,1292.00
2017-04-30T07:12:13.101Z,1260.00
2017-04-30T07:13:14.391Z,1252.00
2017-04-30T07:14:15.700Z,1284.00
2017-04-30T07:15:21.665Z,1304.00
2017-04-30T07:16:26.959Z,1340.00
2017-04-30T07:17:31.786Z,1360.00
2017-04-30T07:18:33.016Z,1360.00
2017-04-30T07:19:34.326Z,1368.00
2017-04-30T07:20:36.968Z,1364.00
2017-04-30T07:21:39.428Z,1360.00
2017-04-30T07:22:40.665Z,1360.00
2017-04-30T07:23:41.957Z,1340.00
2017-04-30T07:24:43.257Z,1324.00
2017-04-30T07:25:45.714Z,1288.00
2017-04-30T07:26:47.036Z,1332.00
2017-04-30T07:27:48.346Z,1348.00
2017-04-30T07:28:52.692Z,1336.00
2017-04-30T07:29:53.989Z,1332.00
2017-04-30T07:30:56.958Z,1352.00
2017-04-30T07:31:58.249Z,1376.00
2017-04-30T07:32:59.597Z,1380.00
2017-04-30T07:34:01.530Z,1400.00
2017-04-30T07:35:02.824Z,1408.00
2017-04-30T07:36:04.115Z,1412.00
2017-04-30T07:37:05.406Z,1408.00
2017-04-30T07:38:09.927Z,1404.00
2017-04-30T07:39:11.167Z,1404.00
2017-04-30T07:40:12.482Z,1384.00
2017-04-30T07:41:16.798Z,1360.00
2017-04-30T07:42:18.167Z,1404.00
2017-04-30T07:43:23.410Z,1440.00
2017-04-30T07:44:24.654Z,1444.00
2017-04-30T07:45:25.976Z,1444.00
2017-04-30T07:46:27.271Z,1456.00
2017-04-30T07:47:28.561Z,1452.00
2017-04-30T07:48:29.852Z,1460.00
2017-04-30T07:49:31.144Z,1444.00
2017-04-30T07:50:33.055Z,1444.00
2017-04-30T07:51:34.351Z,1460.00
2017-04-30T07:52:35.661Z,1464.00
2017-04-30T07:53:36.948Z,1460.00
2017-04-30T07:54:38.242Z,1448.00
2017-04-30T07:55:39.533Z,1416.00
2017-04-30T07:56:40.826Z,1412.00
2017-04-30T07:57:42.118Z,1444.00
2017-04-30T07:58:43.406Z,1448.00
2017-04-30T07:59:44.709Z,1444.00
2017-04-30T08:00:46.011Z,1444.00
2017-04-30T08:01:47.300Z,1440.00
2017-04-30T08:02:48.594Z,1456.00
2017-04-30T08:03:49.888Z,1452.00
2017-04-30T08:04:51.180Z,1464.00
2017-04-30T08:05:52.472Z,1456.00
2017-04-30T08:06:53.766Z,1456.00
2017-04-30T08:07:55.056Z,1432.00
2017-04-30T08:08:56.349Z,1476.00
2017-04-30T08:09:57.642Z,1496.00
2017-04-30T08:10:58.933Z,1512.00
2017-04-30T08:12:00.227Z,1516.00
2017-04-30T08:13:01.517Z,1524.00
2017-04-30T08:14:02.808Z,1532.00
2017-04-30T08:15:04.103Z,1548.00
2017-04-30T08:16:05.397Z,1560.00
2017-04-30T08:17:06.688Z,1568.00
2017-04-30T08:18:07.985Z,1580.00
2017-04-30T08:19:09.272Z,1592.00
2017-04-30T08:20:11.107Z,1600.00
2017-04-30T08:21:12.434Z,1608.00
2017-04-30T08:22:13.722Z,1612.00
2017-04-30T08:23:15.444Z,1624.00
2017-04-30T08:24:17.104Z,1628.00
2017-04-30T08:25:18.822Z,1640.00
2017-04-30T08:26:20.125Z,1608.00
2017-04-30T08:27:21.417Z,1656.00
2017-04-30T08:28:22.711Z,1672.00
2017-04-30T08:29:24.002Z,1696.00
2017-04-30T08:30:25.317Z,1708.00
2017-04-30T08:31:26.588Z,1716.00
2017-04-30T08:32:27.882Z,1736.00
2017-04-30T08:33:29.176Z,1744.00
2017-04-30T08:34:30.465Z,1764.00
2017-04-30T08:35:31.757Z,1760.00
2017-04-30T08:36:33.049Z,1760.00
2017-04-30T08:37:37.904Z,1764.00
2017-04-30T08:38:39.266Z,1748.00
2017-04-30T08:39:40.558Z,1748.00
2017-04-30T08:40:45.351Z,1756.00
2017-04-30T08:41:46.658Z,1776.00
2017-04-30T08:42:47.953Z,1752.00
2017-04-30T08:43:49.246Z,1752.00
2017-04-30T08:44:50.540Z,1760.00
2017-04-30T08:45:51.835Z,1756.00
2017-04-30T08:46:53.128Z,1740.00
2017-04-30T08:47:54.421Z,1724.00
2017-04-30T08:48:55.717Z,1720.00
2017-04-30T08:49:57.010Z,1688.00
2017-04-30T08:50:58.301Z,1608.00
2017-04-30T08:51:59.684Z,1708.00
2017-04-30T08:53:03.040Z,1732.00
2017-04-30T08:54:07.632Z,1732.00
2017-04-30T08:55:09.062Z,1732.00
2017-04-30T08:56:10.356Z,1712.00
2017-04-30T08:57:15.502Z,1676.00
2017-04-30T08:58:18.504Z,1608.00
2017-04-30T08:59:23.422Z,1544.00
2017-04-30T09:00:27.458Z,1540.00
2017-04-30T09:01:32.892Z,1520.00
2017-04-30T09:02:35.851Z,1488.00
2017-04-30T09:03:37.137Z,1460.00
2017-04-30T09:04:38.429Z,1492.00
2017-04-30T09:05:43.126Z,1528.00
2017-04-30T09:06:46.212Z,1556.00
2017-04-30T09:07:49.111Z,1548.00
2017-04-30T09:08:50.409Z,1536.00
2017-04-30T09:09:51.720Z,1524.00
2017-04-30T09:10:57.398Z,1548.00
2017-04-30T09:12:02.213Z,1544.00
2017-04-30T09:13:03.451Z,1520.00
2017-04-30T09:14:08.818Z,1472.00
2017-04-30T09:15:10.066Z,1356.00
2017-04-30T09:16:11.360Z,1440.00
2017-04-30T09:17:12.939Z,1416.00
2017-04-30T09:18:15.040Z,1324.00
2017-04-30T09:19:18.967Z,1276.00
2017-04-30T09:20:20.207Z,1260.00
2017-04-30T09:21:21.524Z,1372.00
2017-04-30T09:22:22.817Z,1220.00
2017-04-30T09:23:24.242Z,1244.00
2017-04-30T09:24:25.532Z,1268.00
2017-04-30T09:25:27.566Z,1272.00
2017-04-30T09:26:28.861Z,1316.00
2017-04-30T09:27:30.156Z,1244.00
2017-04-30T09:28:31.446Z,1200.00
2017-04-30T09:29:32.739Z,1200.00
2017-04-30T09:30:34.033Z,1196.00
2017-04-30T09:31:35.329Z,1240.00
2017-04-30T09:32:36.623Z,1256.00
2017-04-30T09:33:37.919Z,1368.00
2017-04-30T09:34:39.213Z,1396.00
2017-04-30T09:35:40.505Z,1352.00
2017-04-30T09:36:41.799Z,1412.00
2017-04-30T09:37:44.104Z,1428.00
2017-04-30T09:38:45.396Z,1456.00
2017-04-30T09:39:46.695Z,1464.00
2017-04-30T09:40:48.013Z,1440.00
2017-04-30T09:41:49.321Z,1436.00
2017-04-30T09:42:50.611Z,1428.00
2017-04-30T09:43:51.909Z,1428.00
2017-04-30T09:44:53.289Z,1408.00
2017-04-30T09:45:54.580Z,1408.00
2017-04-30T09:46:55.871Z,1392.00
2017-04-30T09:47:57.164Z,1288.00
2017-04-30T09:48:58.455Z,1384.00
2017-04-30T09:49:59.747Z,1360.00
2017-04-30T09:51:01.046Z,1388.00
2017-04-30T09:52:02.326Z,1396.00
2017-04-30T09:53:04.155Z,1396.00
2017-04-30T09:54:05.451Z,1432.00
2017-04-30T09:55:06.742Z,1444.00
2017-04-30T09:56:08.036Z,1420.00
2017-04-30T09:57:09.328Z,1420.00
2017-04-30T09:58:10.621Z,1388.00
2017-04-30T09:59:11.910Z,1404.00
2017-04-30T10:00:16.864Z,1396.00
2017-04-30T10:01:18.151Z,1392.00
2017-04-30T10:02:19.443Z,1388.00
2017-04-30T10:03:20.736Z,1372.00
2017-04-30T10:04:22.034Z,1380.00
2017-04-30T10:05:23.329Z,1388.00
2017-04-30T10:06:25.348Z,1392.00
2017-04-30T10:07:26.614Z,1404.00
2017-04-30T10:08:27.907Z,1432.00
2017-04-30T10:09:32.803Z,1432.00
2017-04-30T10:10:34.792Z,1420.00
2017-04-30T10:11:39.248Z,1448.00
2017-04-30T10:12:40.543Z,1456.00
2017-04-30T10:13:41.839Z,1468.00
2017-04-30T10:14:43.130Z,1480.00
2017-04-30T10:15:44.431Z,1480.00
2017-04-30T10:16:45.968Z,1480.00
2017-04-30T10:17:47.260Z,1472.00
2017-04-30T10:18:48.556Z,1468.00
2017-04-30T10:19:49.848Z,1436.00
2017-04-30T10:20:51.142Z,1412.00
2017-04-30T10:21:55.689Z,1396.00
2017-04-30T10:22:56.935Z,1396.00
2017-04-30T10:23:58.227Z,1424.00
2017-04-30T10:24:59.518Z,1412.00
2017-04-30T10:26:00.812Z,1444.00
2017-04-30T10:27:02.105Z,1472.00
2017-04-30T10:28:03.397Z,1492.00
2017-04-30T10:29:04.691Z,1512.00
2017-04-30T10:30:07.662Z,1536.00
2017-04-30T10:31:08.989Z,1548.00
2017-04-30T10:32:10.287Z,1544.00
2017-04-30T10:33:11.579Z,1532.00
2017-04-30T10:34:12.875Z,1524.00
2017-04-30T10:35:14.161Z,1524.00
2017-04-30T10:36:15.452Z,1512.00
2017-04-30T10:37:16.746Z,1504.00
2017-04-30T10:38:18.038Z,1488.00
2017-04-30T10:39:19.333Z,1484.00
2017-04-30T10:40:20.625Z,1464.00
2017-04-30T10:41:21.918Z,1452.00
2017-04-30T10:42:23.211Z,1436.00
2017-04-30T10:43:24.515Z,1412.00
2017-04-30T10:44:25.809Z,1392.00
2017-04-30T10:45:27.101Z,1376.00
2017-04-30T10:46:28.399Z,1380.00
2017-04-30T10:47:29.685Z,1384.00
2017-04-30T10:48:30.977Z,1392.00
2017-04-30T10:49:32.269Z,1384.00
2017-04-30T10:50:33.562Z,1392.00
2017-04-30T10:51:34.854Z,1376.00
2017-04-30T10:52:36.145Z,1396.00
2017-04-30T10:53:37.438Z,1392.00
2017-04-30T10:54:38.730Z,1388.00
2017-04-30T10:55:40.022Z,1392.00
2017-04-30T10:56:41.312Z,1392.00
2017-04-30T10:57:42.605Z,1408.00
2017-04-30T10:58:43.896Z,1400.00
2017-04-30T10:59:45.187Z,1416.00
2017-04-30T11:00:46.525Z,1416.00
2017-04-30T11:01:47.817Z,1396.00
2017-04-30T11:02:49.108Z,1412.00
2017-04-30T11:03:50.399Z,1380.00
2017-04-30T11:04:51.690Z,1364.00
2017-04-30T11:05:52.982Z,1340.00
2017-04-30T11:06:54.275Z,1368.00
2017-04-30T11:07:55.565Z,1396.00
2017-04-30T11:08:56.857Z,1440.00
2017-04-30T11:09:58.148Z,1476.00
2017-04-30T11:10:59.439Z,1516.00
2017-04-30T11:12:00.766Z,1556.00
2017-04-30T11:13:02.052Z,1608.00
2017-04-30T11:14:03.342Z,1664.00
2017-04-30T11:15:04.634Z,1740.00
2017-04-30T11:16:05.924Z,1760.00
2017-04-30T11:17:07.216Z,1744.00
2017-04-30T11:18:08.511Z,1688.00
2017-04-30T11:19:09.806Z,1608.00
2017-04-30T11:20:11.098Z,1548.00
2017-04-30T11:21:12.388Z,1476.00
2017-04-30T11:22:13.681Z,1404.00
2017-04-30T11:23:14.970Z,1320.00
2017-04-30T11:24:16.262Z,1248.00
2017-04-30T11:25:17.552Z,1184.00
2017-04-30T11:26:18.844Z,1132.00
2017-04-30T11:27:20.135Z,1108.00
2017-04-30T11:28:21.427Z,1104.00
2017-04-30T11:29:22.739Z,1132.00
2017-04-30T11:30:24.031Z,1172.00
2017-04-30T11:31:25.324Z,1236.00
2017-04-30T11:32:26.617Z,1344.00
2017-04-30T11:33:27.908Z,1584.00
2017-04-30T11:34:29.201Z,1756.00
2017-04-30T11:35:30.492Z,1924.00
2017-04-30T11:36:31.786Z,2076.00
2017-04-30T11:37:33.076Z,2236.00
2017-04-30T11:38:34.372Z,2356.00
2017-04-30T11:39:35.663Z,2464.00
2017-04-30T11:40:36.959Z,2520.00
2017-04-30T11:41:38.255Z,2516.00
2017-04-30T11:42:39.568Z,2464.00
2017-04-30T11:43:40.857Z,2400.00
2017-04-30T11:44:42.153Z,2348.00
2017-04-30T11:45:43.444Z,2264.00
2017-04-30T11:46:44.737Z,2152.00
2017-04-30T11:47:46.031Z,2080.00
2017-04-30T11:48:47.324Z,1960.00
2017-04-30T11:49:48.617Z,1884.00
2017-04-30T11:50:49.906Z,1820.00
2017-04-30T11:51:51.196Z,1748.00
2017-04-30T11:52:52.489Z,1604.00
2017-04-30T11:53:53.785Z,1520.00
2017-04-30T11:54:55.076Z,1436.00
2017-04-30T11:55:56.373Z,1384.00
2017-04-30T11:56:57.664Z,1440.00
2017-04-30T11:57:58.958Z,1448.00
2017-04-30T11:59:00.250Z,1492.00
2017-04-30T12:00:01.541Z,1564.00
2017-04-30T12:01:02.835Z,1656.00
2017-04-30T12:02:04.124Z,1712.00
2017-04-30T12:03:05.417Z,1852.00
2017-04-30T12:04:06.711Z,1888.00
2017-04-30T12:05:08.003Z,1936.00
2017-04-30T12:06:09.295Z,1956.00
2017-04-30T12:07:10.587Z,1948.00
2017-04-30T12:08:11.877Z,1944.00
2017-04-30T12:09:13.171Z,1940.00
2017-04-30T12:10:14.468Z,1940.00
2017-04-30T12:11:15.764Z,1916.00
2017-04-30T12:12:17.052Z,1920.00
2017-04-30T12:13:18.345Z,1924.00
2017-04-30T12:14:19.659Z,1932.00
2017-04-30T12:15:20.949Z,1940.00
2017-04-30T12:16:22.245Z,1928.00
2017-04-30T12:17:23.538Z,1912.00
2017-04-30T12:18:24.837Z,1920.00
2017-04-30T12:19:26.124Z,1912.00
2017-04-30T12:20:27.424Z,1912.00
2017-04-30T12:21:28.718Z,1900.00
2017-04-30T12:22:30.010Z,1860.00
2017-04-30T12:23:31.307Z,1776.00
2017-04-30T12:24:32.597Z,1764.00
2017-04-30T12:25:33.888Z,1704.00
2017-04-30T12:26:35.183Z,1644.00
2017-04-30T12:27:36.475Z,1596.00
2017-04-30T12:28:37.768Z,1556.00
2017-04-30T12:29:39.061Z,1520.00
2017-04-30T12:30:40.353Z,1492.00
2017-04-30T12:31:41.646Z,1468.00
2017-04-30T12:32:42.938Z,1448.00
2017-04-30T12:33:44.231Z,1416.00
2017-04-30T12:34:45.523Z,1308.00
2017-04-30T12:35:46.814Z,1316.00
2017-04-30T12:36:48.108Z,1324.00
2017-04-30T12:37:49.406Z,1332.00
2017-04-30T12:38:50.697Z,1388.00
2017-04-30T12:39:51.989Z,1408.00
2017-04-30T12:40:53.280Z,1440.00
2017-04-30T12:41:54.571Z,1476.00
2017-04-30T12:42:55.864Z,1508.00
2017-04-30T12:43:57.155Z,1536.00
2017-04-30T12:44:58.448Z,1556.00
2017-04-30T12:45:59.740Z,1544.00
2017-04-30T12:47:01.036Z,1504.00
2017-04-30T12:48:02.347Z,1472.00
2017-04-30T12:49:03.629Z,1440.00
2017-04-30T12:50:04.916Z,1436.00